sensor_id;sensor_type;location;lat;lon;timestamp;P1;durP1;ratioP1;P2;durP2;ratioP2
31348;SDS011;17976;48.480;11.946;2024-02-15T12:36:47;3.47;;;1.35;;
31348;SDS011;17976;48.480;11.946;2024-02-15T12:39:14;3.97;;;1.10;;
31348;SDS011;17976;48.480;11.946;2024-02-15T12:41:49;1.70;;;0.90;;
31348;SDS011;17976;48.480;11.946;2024-02-15T12:44:17;1.90;;;1.00;;
31348;SDS011;17976;48.480;11.946;2024-02-15T12:46:45;2.00;;;1.00;;
31348;SDS011;17976;48.480;11.946;2024-02-15T12:51:49;4.30;;;0.95;;
31348;SDS011;17976;48.480;11.946;2024-02-15T12:54:19;4.63;;;0.93;;
31348;SDS011;17976;48.480;11.946;2024-02-15T12:56:46;4.57;;;1.00;;
31348;SDS011;17976;48.480;11.946;2024-02-15T12:59:21;1.98;;;1.00;;
31348;SDS011;17976;48.480;11.946;2024-02-15T13:01:49;2.53;;;0.90;;
31348;SDS011;17976;48.480;11.946;2024-02-15T13:04:24;1.25;;;0.80;;
31348;SDS011;17976;48.480;11.946;2024-02-15T13:06:50;1.52;;;1.00;;
31348;SDS011;17976;48.480;11.946;2024-02-15T13:09:16;1.95;;;0.70;;
31348;SDS011;17976;48.480;11.946;2024-02-15T13:11:42;2.25;;;0.95;;
31348;SDS011;17976;48.480;11.946;2024-02-15T13:14:11;2.53;;;0.77;;
31348;SDS011;17976;48.480;11.946;2024-02-15T13:16:37;3.85;;;1.10;;
31348;SDS011;17976;48.480;11.946;2024-02-15T13:19:03;2.47;;;0.80;;
31348;SDS011;17976;48.480;11.946;2024-02-15T13:21:32;2.33;;;0.82;;
31348;SDS011;17976;48.480;11.946;2024-02-15T13:23:59;3.38;;;0.95;;
31348;SDS011;17976;48.480;11.946;2024-02-15T13:26:25;3.22;;;1.17;;
31348;SDS011;17976;48.480;11.946;2024-02-15T13:28:51;3.72;;;1.20;;
31348;SDS011;17976;48.480;11.946;2024-02-15T13:31:17;7.38;;;0.98;;
31348;SDS011;17976;48.480;11.946;2024-02-15T13:33:46;1.95;;;1.00;;
31348;SDS011;17976;48.480;11.946;2024-02-15T13:36:12;4.68;;;1.17;;
31348;SDS011;17976;48.480;11.946;2024-02-15T13:38:40;1.50;;;1.10;;
31348;SDS011;17976;48.480;11.946;2024-02-15T13:41:07;2.33;;;1.08;;
31348;SDS011;17976;48.480;11.946;2024-02-15T13:43:33;2.88;;;0.95;;
31348;SDS011;17976;48.480;11.946;2024-02-15T13:46:00;2.17;;;1.08;;
31348;SDS011;17976;48.480;11.946;2024-02-15T13:48:29;1.88;;;1.08;;
31348;SDS011;17976;48.480;11.946;2024-02-15T13:50:56;6.00;;;1.05;;
31348;SDS011;17976;48.480;11.946;2024-02-15T13:53:23;4.40;;;1.30;;
31348;SDS011;17976;48.480;11.946;2024-02-15T13:55:50;9.15;;;4.45;;
31348;SDS011;17976;48.480;11.946;2024-02-15T13:58:17;3.50;;;1.40;;
31348;SDS011;17976;48.480;11.946;2024-02-15T14:00:43;3.47;;;1.30;;
31348;SDS011;17976;48.480;11.946;2024-02-15T14:03:10;2.95;;;1.23;;
31348;SDS011;17976;48.480;11.946;2024-02-15T14:05:36;4.13;;;1.35;;
31348;SDS011;17976;48.480;11.946;2024-02-15T14:08:05;2.42;;;1.20;;
31348;SDS011;17976;48.480;11.946;2024-02-15T14:10:34;1.73;;;1.17;;
31348;SDS011;17976;48.480;11.946;2024-02-15T14:13:01;4.53;;;1.15;;
31348;SDS011;17976;48.480;11.946;2024-02-15T14:15:28;4.10;;;1.67;;
31348;SDS011;17976;48.480;11.946;2024-02-15T14:17:54;2.47;;;1.23;;
31348;SDS011;17976;48.480;11.946;2024-02-15T14:20:21;2.88;;;1.15;;
31348;SDS011;17976;48.480;11.946;2024-02-15T14:22:49;2.75;;;1.00;;
31348;SDS011;17976;48.480;11.946;2024-02-15T14:25:20;4.10;;;1.25;;
31348;SDS011;17976;48.480;11.946;2024-02-15T14:27:46;2.42;;;1.10;;
31348;SDS011;17976;48.480;11.946;2024-02-15T14:30:15;3.50;;;0.95;;
31348;SDS011;17976;48.480;11.946;2024-02-15T14:33:00;1.55;;;0.88;;
31348;SDS011;17976;48.480;11.946;2024-02-15T14:35:28;4.45;;;1.05;;
31348;SDS011;17976;48.480;11.946;2024-02-15T14:37:55;1.83;;;0.90;;
31348;SDS011;17976;48.480;11.946;2024-02-15T14:40:23;2.92;;;1.00;;
31348;SDS011;17976;48.480;11.946;2024-02-15T14:42:49;2.45;;;0.95;;
31348;SDS011;17976;48.480;11.946;2024-02-15T14:45:15;2.22;;;1.20;;
31348;SDS011;17976;48.480;11.946;2024-02-15T14:47:41;4.22;;;1.40;;
31348;SDS011;17976;48.480;11.946;2024-02-15T14:50:07;2.85;;;1.45;;
31348;SDS011;17976;48.480;11.946;2024-02-15T14:52:37;4.38;;;1.63;;
31348;SDS011;17976;48.480;11.946;2024-02-15T14:55:03;2.95;;;1.50;;
31348;SDS011;17976;48.480;11.946;2024-02-15T14:57:30;1.45;;;1.00;;
31348;SDS011;17976;48.480;11.946;2024-02-15T14:59:57;8.63;;;1.45;;
31348;SDS011;17976;48.480;11.946;2024-02-15T15:02:23;3.08;;;1.20;;
31348;SDS011;17976;48.480;11.946;2024-02-15T15:04:49;3.33;;;1.48;;
31348;SDS011;17976;48.480;11.946;2024-02-15T15:07:34;3.30;;;1.52;;
31348;SDS011;17976;48.480;11.946;2024-02-15T15:10:19;3.40;;;1.20;;
31348;SDS011;17976;48.480;11.946;2024-02-15T15:13:03;2.30;;;1.27;;
31348;SDS011;17976;48.480;11.946;2024-02-15T15:15:29;3.17;;;1.35;;
31348;SDS011;17976;48.480;11.946;2024-02-15T15:17:55;3.20;;;1.30;;
31348;SDS011;17976;48.480;11.946;2024-02-15T15:20:21;4.05;;;1.40;;
31348;SDS011;17976;48.480;11.946;2024-02-15T15:22:49;2.50;;;1.40;;
31348;SDS011;17976;48.480;11.946;2024-02-15T15:25:15;4.97;;;1.70;;
31348;SDS011;17976;48.480;11.946;2024-02-15T15:27:41;3.47;;;1.38;;
31348;SDS011;17976;48.480;11.946;2024-02-15T15:30:07;4.60;;;1.70;;
31348;SDS011;17976;48.480;11.946;2024-02-15T15:32:33;3.20;;;1.45;;
31348;SDS011;17976;48.480;11.946;2024-02-15T15:35:00;2.38;;;1.27;;
31348;SDS011;17976;48.480;11.946;2024-02-15T15:37:26;4.93;;;1.70;;
31348;SDS011;17976;48.480;11.946;2024-02-15T15:39:53;3.95;;;2.20;;
31348;SDS011;17976;48.480;11.946;2024-02-15T15:42:20;3.28;;;1.70;;
31348;SDS011;17976;48.480;11.946;2024-02-15T15:44:47;4.55;;;1.50;;
31348;SDS011;17976;48.480;11.946;2024-02-15T15:47:14;3.88;;;1.67;;
31348;SDS011;17976;48.480;11.946;2024-02-15T15:49:40;5.57;;;1.90;;
31348;SDS011;17976;48.480;11.946;2024-02-15T15:52:06;5.75;;;1.90;;
31348;SDS011;17976;48.480;11.946;2024-02-15T15:54:32;4.25;;;1.90;;
31348;SDS011;17976;48.480;11.946;2024-02-15T15:56:58;4.10;;;1.58;;
31348;SDS011;17976;48.480;11.946;2024-02-15T15:59:25;4.72;;;1.55;;
31348;SDS011;17976;48.480;11.946;2024-02-15T16:01:51;2.95;;;1.50;;
31348;SDS011;17976;48.480;11.946;2024-02-15T16:04:17;3.80;;;1.52;;
31348;SDS011;17976;48.480;11.946;2024-02-15T16:06:43;3.15;;;1.38;;
31348;SDS011;17976;48.480;11.946;2024-02-15T16:09:09;3.08;;;1.55;;
31348;SDS011;17976;48.480;11.946;2024-02-15T16:11:36;4.38;;;2.30;;
31348;SDS011;17976;48.480;11.946;2024-02-15T16:14:02;2.45;;;1.33;;
31348;SDS011;17976;48.480;11.946;2024-02-15T16:16:30;4.38;;;1.38;;
31348;SDS011;17976;48.480;11.946;2024-02-15T16:18:56;7.40;;;1.80;;
31348;SDS011;17976;48.480;11.946;2024-02-15T16:21:22;3.60;;;1.10;;
31348;SDS011;17976;48.480;11.946;2024-02-15T16:23:49;6.80;;;1.77;;
31348;SDS011;17976;48.480;11.946;2024-02-15T16:26:15;2.20;;;1.23;;
31348;SDS011;17976;48.480;11.946;2024-02-15T16:28:41;4.20;;;1.40;;
31348;SDS011;17976;48.480;11.946;2024-02-15T16:31:07;2.40;;;1.10;;
31348;SDS011;17976;48.480;11.946;2024-02-15T16:33:33;3.53;;;1.30;;
31348;SDS011;17976;48.480;11.946;2024-02-15T16:35:59;3.33;;;1.30;;
31348;SDS011;17976;48.480;11.946;2024-02-15T16:38:25;3.78;;;1.45;;
31348;SDS011;17976;48.480;11.946;2024-02-15T16:40:51;1.38;;;1.10;;
31348;SDS011;17976;48.480;11.946;2024-02-15T16:43:18;3.08;;;1.25;;
31348;SDS011;17976;48.480;11.946;2024-02-15T16:45:45;3.38;;;1.40;;
31348;SDS011;17976;48.480;11.946;2024-02-15T16:48:12;2.97;;;1.25;;
31348;SDS011;17976;48.480;11.946;2024-02-15T16:50:38;2.53;;;1.05;;
31348;SDS011;17976;48.480;11.946;2024-02-15T16:53:06;3.40;;;1.35;;
31348;SDS011;17976;48.480;11.946;2024-02-15T16:55:34;3.17;;;1.23;;
31348;SDS011;17976;48.480;11.946;2024-02-15T16:58:00;3.80;;;1.10;;
31348;SDS011;17976;48.480;11.946;2024-02-15T17:00:32;4.45;;;1.58;;
31348;SDS011;17976;48.480;11.946;2024-02-15T17:02:59;3.38;;;1.30;;
31348;SDS011;17976;48.480;11.946;2024-02-15T17:05:28;3.80;;;1.52;;
31348;SDS011;17976;48.480;11.946;2024-02-15T17:07:55;7.35;;;1.25;;
31348;SDS011;17976;48.480;11.946;2024-02-15T17:10:21;3.67;;;1.33;;
31348;SDS011;17976;48.480;11.946;2024-02-15T17:12:47;4.78;;;1.30;;
31348;SDS011;17976;48.480;11.946;2024-02-15T17:15:13;9.52;;;1.63;;
31348;SDS011;17976;48.480;11.946;2024-02-15T17:17:40;3.53;;;1.30;;
31348;SDS011;17976;48.480;11.946;2024-02-15T17:20:06;4.22;;;1.42;;
31348;SDS011;17976;48.480;11.946;2024-02-15T17:22:39;3.17;;;1.20;;
31348;SDS011;17976;48.480;11.946;2024-02-15T17:25:06;12.50;;;1.85;;
31348;SDS011;17976;48.480;11.946;2024-02-15T17:27:32;5.65;;;1.50;;
31348;SDS011;17976;48.480;11.946;2024-02-15T17:30:00;3.53;;;1.50;;
31348;SDS011;17976;48.480;11.946;2024-02-15T17:32:26;4.65;;;1.50;;
31348;SDS011;17976;48.480;11.946;2024-02-15T17:34:52;4.07;;;1.50;;
31348;SDS011;17976;48.480;11.946;2024-02-15T17:37:18;5.05;;;1.63;;
31348;SDS011;17976;48.480;11.946;2024-02-15T17:39:44;4.35;;;1.63;;
31348;SDS011;17976;48.480;11.946;2024-02-15T17:42:10;5.60;;;1.48;;
31348;SDS011;17976;48.480;11.946;2024-02-15T17:44:38;4.85;;;1.50;;
31348;SDS011;17976;48.480;11.946;2024-02-15T17:47:05;6.18;;;1.77;;
31348;SDS011;17976;48.480;11.946;2024-02-15T17:49:32;4.43;;;1.45;;
31348;SDS011;17976;48.480;11.946;2024-02-15T17:51:58;6.07;;;2.20;;
31348;SDS011;17976;48.480;11.946;2024-02-15T17:54:24;5.22;;;1.92;;
31348;SDS011;17976;48.480;11.946;2024-02-15T17:56:51;5.57;;;1.73;;
31348;SDS011;17976;48.480;11.946;2024-02-15T17:59:18;5.50;;;1.92;;
31348;SDS011;17976;48.480;11.946;2024-02-15T18:01:45;3.25;;;1.40;;
31348;SDS011;17976;48.480;11.946;2024-02-15T18:04:11;8.43;;;2.40;;
31348;SDS011;17976;48.480;11.946;2024-02-15T18:06:37;4.82;;;1.90;;
31348;SDS011;17976;48.480;11.946;2024-02-15T18:09:03;4.47;;;1.90;;
31348;SDS011;17976;48.480;11.946;2024-02-15T18:11:31;2.95;;;1.60;;
31348;SDS011;17976;48.480;11.946;2024-02-15T18:13:57;3.50;;;1.52;;
31348;SDS011;17976;48.480;11.946;2024-02-15T18:16:23;5.53;;;1.80;;
31348;SDS011;17976;48.480;11.946;2024-02-15T18:18:49;4.80;;;2.33;;
31348;SDS011;17976;48.480;11.946;2024-02-15T18:21:16;6.60;;;2.17;;
31348;SDS011;17976;48.480;11.946;2024-02-15T18:23:42;2.92;;;1.52;;
31348;SDS011;17976;48.480;11.946;2024-02-15T18:26:08;6.00;;;1.80;;
31348;SDS011;17976;48.480;11.946;2024-02-15T18:28:34;4.10;;;2.05;;
31348;SDS011;17976;48.480;11.946;2024-02-15T18:31:01;6.57;;;1.88;;
31348;SDS011;17976;48.480;11.946;2024-02-15T18:33:27;5.90;;;1.88;;
31348;SDS011;17976;48.480;11.946;2024-02-15T18:35:53;4.88;;;1.70;;
31348;SDS011;17976;48.480;11.946;2024-02-15T18:38:23;7.85;;;2.03;;
31348;SDS011;17976;48.480;11.946;2024-02-15T18:40:52;6.43;;;2.10;;
31348;SDS011;17976;48.480;11.946;2024-02-15T18:43:21;4.45;;;2.08;;
31348;SDS011;17976;48.480;11.946;2024-02-15T18:45:47;6.35;;;2.20;;
31348;SDS011;17976;48.480;11.946;2024-02-15T18:48:13;2.88;;;1.88;;
31348;SDS011;17976;48.480;11.946;2024-02-15T18:50:42;6.40;;;1.95;;
31348;SDS011;17976;48.480;11.946;2024-02-15T18:53:09;6.03;;;2.15;;
31348;SDS011;17976;48.480;11.946;2024-02-15T18:55:39;3.92;;;1.48;;
31348;SDS011;17976;48.480;11.946;2024-02-15T18:58:05;4.28;;;2.03;;
31348;SDS011;17976;48.480;11.946;2024-02-15T19:00:31;3.95;;;2.25;;
31348;SDS011;17976;48.480;11.946;2024-02-15T19:02:58;6.95;;;2.28;;
31348;SDS011;17976;48.480;11.946;2024-02-15T19:05:25;3.67;;;1.92;;
31348;SDS011;17976;48.480;11.946;2024-02-15T19:07:52;4.35;;;1.83;;
31348;SDS011;17976;48.480;11.946;2024-02-15T19:10:19;4.75;;;1.67;;
31348;SDS011;17976;48.480;11.946;2024-02-15T19:12:45;3.92;;;2.03;;
31348;SDS011;17976;48.480;11.946;2024-02-15T19:15:12;6.32;;;2.60;;
31348;SDS011;17976;48.480;11.946;2024-02-15T19:17:38;5.85;;;2.33;;
31348;SDS011;17976;48.480;11.946;2024-02-15T19:20:04;3.17;;;1.98;;
31348;SDS011;17976;48.480;11.946;2024-02-15T19:22:33;5.15;;;1.70;;
31348;SDS011;17976;48.480;11.946;2024-02-15T19:24:59;4.15;;;1.80;;
31348;SDS011;17976;48.480;11.946;2024-02-15T19:27:25;3.75;;;1.65;;
31348;SDS011;17976;48.480;11.946;2024-02-15T19:29:51;7.05;;;2.40;;
31348;SDS011;17976;48.480;11.946;2024-02-15T19:32:19;3.38;;;1.80;;
31348;SDS011;17976;48.480;11.946;2024-02-15T19:34:45;3.65;;;2.45;;
31348;SDS011;17976;48.480;11.946;2024-02-15T19:37:11;6.53;;;2.78;;
31348;SDS011;17976;48.480;11.946;2024-02-15T19:39:37;4.18;;;2.28;;
31348;SDS011;17976;48.480;11.946;2024-02-15T19:42:05;3.25;;;2.30;;
31348;SDS011;17976;48.480;11.946;2024-02-15T19:44:32;6.38;;;2.50;;
31348;SDS011;17976;48.480;11.946;2024-02-15T19:46:58;8.93;;;2.70;;
31348;SDS011;17976;48.480;11.946;2024-02-15T19:49:24;3.28;;;2.20;;
31348;SDS011;17976;48.480;11.946;2024-02-15T19:51:52;6.45;;;2.58;;
31348;SDS011;17976;48.480;11.946;2024-02-15T19:54:18;6.32;;;2.53;;
31348;SDS011;17976;48.480;11.946;2024-02-15T19:56:44;7.32;;;2.75;;
31348;SDS011;17976;48.480;11.946;2024-02-15T19:59:10;5.20;;;2.60;;
31348;SDS011;17976;48.480;11.946;2024-02-15T20:01:36;5.65;;;2.22;;
31348;SDS011;17976;48.480;11.946;2024-02-15T20:04:02;4.90;;;2.30;;
31348;SDS011;17976;48.480;11.946;2024-02-15T20:06:30;6.45;;;2.42;;
31348;SDS011;17976;48.480;11.946;2024-02-15T20:08:56;3.42;;;2.20;;
31348;SDS011;17976;48.480;11.946;2024-02-15T20:11:24;9.48;;;2.58;;
31348;SDS011;17976;48.480;11.946;2024-02-15T20:13:53;6.38;;;2.63;;
31348;SDS011;17976;48.480;11.946;2024-02-15T20:16:19;5.60;;;2.40;;
31348;SDS011;17976;48.480;11.946;2024-02-15T20:18:47;3.15;;;2.47;;
31348;SDS011;17976;48.480;11.946;2024-02-15T20:21:15;4.10;;;2.67;;
31348;SDS011;17976;48.480;11.946;2024-02-15T20:23:41;6.15;;;2.78;;
31348;SDS011;17976;48.480;11.946;2024-02-15T20:26:07;5.93;;;2.67;;
31348;SDS011;17976;48.480;11.946;2024-02-15T20:28:34;4.60;;;3.13;;
31348;SDS011;17976;48.480;11.946;2024-02-15T20:31:00;4.57;;;2.72;;
31348;SDS011;17976;48.480;11.946;2024-02-15T20:33:26;9.52;;;3.58;;
31348;SDS011;17976;48.480;11.946;2024-02-15T20:35:55;7.47;;;4.72;;
31348;SDS011;17976;48.480;11.946;2024-02-15T20:38:21;9.23;;;4.90;;
31348;SDS011;17976;48.480;11.946;2024-02-15T20:40:50;6.07;;;4.10;;
31348;SDS011;17976;48.480;11.946;2024-02-15T20:43:16;9.68;;;4.95;;
31348;SDS011;17976;48.480;11.946;2024-02-15T20:45:43;7.22;;;4.80;;
31348;SDS011;17976;48.480;11.946;2024-02-15T20:48:09;8.23;;;4.80;;
31348;SDS011;17976;48.480;11.946;2024-02-15T20:50:35;10.65;;;4.15;;
31348;SDS011;17976;48.480;11.946;2024-02-15T20:53:01;5.85;;;4.05;;
31348;SDS011;17976;48.480;11.946;2024-02-15T20:55:27;7.32;;;4.38;;
31348;SDS011;17976;48.480;11.946;2024-02-15T20:57:54;8.60;;;4.35;;
